Time;durP1;ratioP1;P1;durP2;ratioP2;P2;SDS_P1;SDS_P2;PMS_P1;PMS_P2;Temp;Humidity;BMP_temperature;BMP_pressure;BME280_temperature;BME280_humidity;BME280_pressure;Samples;Min_cycle;Max_cycle;Signal;HPM_P1;HPM_P2
2021/03/04 00:02:13;;;;;;;40.88;12.63;;;8.20;94.50;;;;;;4990055;28;20047;-77
2021/03/04 00:04:38;;;;;;;35.80;12.85;;;8.30;93.90;;;;;;4976393;28;20045;-77
2021/03/04 00:07:04;;;;;;;25.35;11.70;;;8.20;93.90;;;;;;4957179;28;20247;-77
2021/03/04 00:09:29;;;;;;;28.80;11.77;;;8.20;94.00;;;;;;4960843;28;20541;-77
2021/03/04 00:11:55;;;;;;;33.05;12.02;;;8.20;94.10;;;;;;5002593;28;20041;-76
2021/03/04 00:14:21;;;;;;;33.40;11.65;;;8.20;93.40;;;;;;4966504;28;20049;-76
2021/03/04 00:16:46;;;;;;;29.10;11.43;;;8.20;93.80;;;;;;4959866;28;20037;-76
2021/03/04 00:19:12;;;;;;;26.50;11.07;;;8.20;93.50;;;;;;4962379;28;20115;-76
2021/03/04 00:21:37;;;;;;;31.50;12.05;;;8.20;93.70;;;;;;4964602;28;20490;-78
2021/03/04 00:24:03;;;;;;;26.38;11.02;;;8.10;93.70;;;;;;4981654;28;20041;-77
2021/03/04 00:26:29;;;;;;;26.45;11.18;;;8.10;93.70;;;;;;4959310;28;20036;-78
2021/03/04 00:28:54;;;;;;;39.65;11.85;;;8.10;93.80;;;;;;4964006;28;20086;-76
2021/03/04 00:31:20;;;;;;;30.38;11.80;;;8.10;94.00;;;;;;4989473;28;20129;-77
2021/03/04 00:33:45;;;;;;;29.92;11.00;;;8.10;93.60;;;;;;4962629;28;20045;-77
2021/03/04 00:36:11;;;;;;;27.50;11.73;;;8.10;93.60;;;;;;4970137;28;20038;-77
2021/03/04 00:38:36;;;;;;;30.67;12.10;;;8.10;93.50;;;;;;4990241;28;20073;-77
2021/03/04 00:41:02;;;;;;;29.17;11.48;;;8.10;93.50;;;;;;4990061;28;20049;-77
2021/03/04 00:43:28;;;;;;;32.38;12.35;;;8.10;93.60;;;;;;4976535;28;20042;-77
2021/03/04 00:45:53;;;;;;;32.38;11.68;;;8.00;93.70;;;;;;4970006;28;20045;-76
2021/03/04 00:48:19;;;;;;;31.40;11.90;;;8.10;93.40;;;;;;4966490;28;20047;-77
2021/03/04 00:50:45;;;;;;;42.40;11.40;;;8.00;93.50;;;;;;4967703;28;20717;-77
2021/03/04 00:53:10;;;;;;;30.92;12.32;;;8.00;93.40;;;;;;4981573;28;20363;-77
2021/03/04 00:55:36;;;;;;;27.02;11.50;;;8.00;93.30;;;;;;4977382;28;20041;-77
2021/03/04 00:58:02;;;;;;;23.42;10.27;;;8.00;93.60;;;;;;4961376;28;20795;-77
2021/03/04 01:00:28;;;;;;;33.55;11.80;;;8.00;93.70;;;;;;4987373;28;20049;-77
2021/03/04 01:02:53;;;;;;;29.90;11.23;;;8.00;93.90;;;;;;5001758;28;20033;-77
2021/03/04 01:05:19;;;;;;;28.70;10.95;;;8.00;93.50;;;;;;4958787;28;20045;-78
2021/03/04 01:07:45;;;;;;;35.25;10.77;;;7.90;93.70;;;;;;4976522;28;20038;-77
2021/03/04 01:10:14;;;;;;;28.80;10.65;;;7.90;93.40;;;;;;4956743;28;20030;-77
2021/03/04 01:12:40;;;;;;;22.85;9.70;;;7.90;92.90;;;;;;4973518;28;20030;-77
2021/03/04 01:15:15;;;;;;;31.30;10.75;;;7.90;92.80;;;;;;4961805;28;20034;-77
2021/03/04 01:17:41;;;;;;;31.33;9.68;;;7.90;92.60;;;;;;4962646;28;20402;-78
2021/03/04 01:20:13;;;;;;;27.65;10.15;;;7.80;93.10;;;;;;4966195;28;20049;-77
2021/03/04 01:22:38;;;;;;;24.42;9.65;;;7.80;93.10;;;;;;4953262;28;20042;-77
2021/03/04 01:25:05;;;;;;;25.80;10.50;;;7.80;93.20;;;;;;4965647;28;20038;-77
2021/03/04 01:27:31;;;;;;;27.73;10.10;;;7.80;93.90;;;;;;4962664;28;20088;-77
2021/03/04 01:29:57;;;;;;;23.25;9.32;;;7.70;93.60;;;;;;4964394;28;20061;-77
2021/03/04 01:32:23;;;;;;;27.23;10.80;;;7.80;93.50;;;;;;4958312;28;20032;-77
2021/03/04 01:34:48;;;;;;;22.42;8.68;;;7.80;93.50;;;;;;4960586;28;20347;-77
2021/03/04 01:37:14;;;;;;;22.08;9.88;;;7.70;93.40;;;;;;4965529;28;20564;-77
2021/03/04 01:39:40;;;;;;;25.83;10.85;;;7.70;93.20;;;;;;4964535;28;20124;-77
2021/03/04 01:42:06;;;;;;;22.55;9.98;;;7.70;93.50;;;;;;4964190;28;20084;-78
2021/03/04 01:44:31;;;;;;;25.20;10.38;;;7.70;93.20;;;;;;4964587;28;20045;-77
2021/03/04 01:46:57;;;;;;;33.10;10.52;;;7.70;93.30;;;;;;5011565;28;20037;-77
2021/03/04 01:49:23;;;;;;;23.17;9.65;;;7.70;93.10;;;;;;4967011;28;20052;-77
2021/03/04 01:51:49;;;;;;;27.17;10.20;;;7.70;93.50;;;;;;4966527;28;20049;-77
2021/03/04 01:54:17;;;;;;;21.67;9.55;;;7.70;93.30;;;;;;4963772;28;20053;-77
2021/03/04 01:56:44;;;;;;;20.90;9.82;;;7.60;94.00;;;;;;4988330;28;20072;-77
2021/03/04 01:59:10;;;;;;;27.95;9.82;;;7.60;93.40;;;;;;4982054;28;20528;-77
2021/03/04 02:04:58;;;;;;;25.30;9.35;;;7.60;93.80;;;;;;4962162;28;20072;-76
2021/03/04 02:07:48;;;;;;;28.25;9.57;;;7.60;93.50;;;;;;4960049;28;20466;-77
2021/03/04 02:10:28;;;;;;;28.00;10.32;;;7.60;93.80;;;;;;4963191;28;20046;-76
2021/03/04 02:12:59;;;;;;;25.90;9.48;;;7.50;93.90;;;;;;4962573;28;20044;-76
2021/03/04 02:15:55;;;;;;;26.88;9.50;;;7.50;94.00;;;;;;4959984;28;20403;-76
2021/03/04 02:18:25;;;;;;;30.38;10.20;;;7.50;94.10;;;;;;4986049;28;20049;-77
2021/03/04 02:21:22;;;;;;;25.58;10.00;;;7.50;93.70;;;;;;4988075;28;20126;-77
2021/03/04 02:23:56;;;;;;;30.67;9.50;;;7.50;94.00;;;;;;4959094;28;20455;-76
2021/03/04 02:26:25;;;;;;;;;;;7.50;93.80;;;;;;4963672;28;20037;-76
2021/03/04 02:28:54;;;;;;;25.33;10.18;;;7.50;93.80;;;;;;4987778;28;19996;-77
2021/03/04 02:31:21;;;;;;;25.67;10.27;;;7.50;93.60;;;;;;4986457;28;20440;-77
2021/03/04 02:33:48;;;;;;;29.52;11.20;;;7.50;93.60;;;;;;4989193;28;20041;-77
2021/03/04 02:36:14;;;;;;;31.75;9.40;;;7.40;93.50;;;;;;4965210;28;20042;-77
2021/03/04 02:38:40;;;;;;;33.47;11.25;;;7.50;93.30;;;;;;4988490;28;20067;-76
2021/03/04 02:41:06;;;;;;;23.80;9.75;;;7.40;93.40;;;;;;4985376;28;20514;-79
2021/03/04 02:43:33;;;;;;;29.70;10.88;;;7.30;93.60;;;;;;4988603;28;20081;-77
2021/03/04 02:46:01;;;;;;;25.08;10.25;;;7.40;93.80;;;;;;4966994;28;20034;-77
2021/03/04 02:48:27;;;;;;;22.25;9.32;;;7.30;93.80;;;;;;4977047;28;20033;-77
2021/03/04 02:50:55;;;;;;;23.92;10.13;;;7.40;93.40;;;;;;4966330;28;20529;-77
2021/03/04 02:53:22;;;;;;;23.55;9.63;;;7.40;93.50;;;;;;4989960;28;20033;-77
2021/03/04 02:55:49;;;;;;;22.38;8.82;;;7.40;93.30;;;;;;4963422;28;20069;-77
2021/03/04 02:58:15;;;;;;;23.05;10.23;;;7.40;93.90;;;;;;5000903;28;20512;-77
2021/03/04 03:00:42;;;;;;;23.85;8.95;;;7.40;93.40;;;;;;5007506;28;20140;-77
2021/03/04 03:03:13;;;;;;;27.58;9.48;;;7.40;93.30;;;;;;5020261;28;20404;-77
2021/03/04 03:05:40;;;;;;;22.45;9.02;;;7.50;93.10;;;;;;5003764;28;20635;-77
2021/03/04 03:08:07;;;;;;;23.85;9.93;;;7.50;93.60;;;;;;5004002;28;20033;-77
2021/03/04 03:10:34;;;;;;;18.85;8.88;;;7.50;93.60;;;;;;5005662;28;20579;-77
2021/03/04 03:13:01;;;;;;;22.60;9.02;;;7.50;93.30;;;;;;5005149;28;20395;-77
2021/03/04 03:15:27;;;;;;;22.85;8.23;;;7.50;93.30;;;;;;5003969;28;20449;-77
2021/03/04 03:17:53;;;;;;;22.75;9.48;;;7.40;93.10;;;;;;5001633;28;20033;-77
2021/03/04 03:20:21;;;;;;;23.13;8.20;;;7.50;92.40;;;;;;5004341;28;20072;-76
2021/03/04 03:22:48;;;;;;;19.83;8.63;;;7.50;92.40;;;;;;5000401;28;20034;-77
2021/03/04 03:25:15;;;;;;;25.38;8.32;;;7.50;92.00;;;;;;5012124;28;20600;-77
2021/03/04 03:27:43;;;;;;;23.77;7.60;;;7.50;92.30;;;;;;5005100;28;20490;-77
2021/03/04 03:30:09;;;;;;;18.60;8.07;;;7.40;92.30;;;;;;5002809;28;20034;-77
2021/03/04 03:32:37;;;;;;;19.52;7.75;;;7.40;91.50;;;;;;5003965;28;20538;-77
2021/03/04 03:35:06;;;;;;;23.75;7.75;;;7.40;92.00;;;;;;4999458;28;20048;-76
2021/03/04 03:37:32;;;;;;;25.10;8.15;;;7.40;90.90;;;;;;5000981;28;20411;-76
2021/03/04 03:39:58;;;;;;;21.33;7.75;;;7.40;91.00;;;;;;5002485;28;20045;-76
2021/03/04 03:42:25;;;;;;;27.35;9.15;;;7.40;91.10;;;;;;5003733;28;20038;-77
2021/03/04 03:44:53;;;;;;;26.65;8.43;;;7.40;91.30;;;;;;5003143;28;20410;-76
2021/03/04 03:47:20;;;;;;;19.33;8.75;;;7.40;91.20;;;;;;4999462;28;20041;-77
2021/03/04 03:49:47;;;;;;;29.70;9.32;;;7.40;91.70;;;;;;5004747;28;20184;-76
2021/03/04 03:52:13;;;;;;;21.27;9.00;;;7.40;91.80;;;;;;4998707;28;20038;-77
2021/03/04 03:54:40;;;;;;;19.13;9.23;;;7.40;91.90;;;;;;4999187;28;20623;-77
2021/03/04 03:57:06;;;;;;;25.48;9.13;;;7.30;91.90;;;;;;4998817;28;20080;-77
2021/03/04 03:59:34;;;;;;;26.90;9.23;;;7.30;91.90;;;;;;5003042;28;20611;-79
2021/03/04 04:02:00;;;;;;;29.38;9.27;;;7.30;91.70;;;;;;4999419;28;20092;-77
2021/03/04 04:04:26;;;;;;;23.65;9.77;;;7.30;91.50;;;;;;5002419;28;20034;-77
2021/03/04 04:06:53;;;;;;;22.27;8.25;;;7.30;91.80;;;;;;4998438;28;20046;-77
2021/03/04 04:09:19;;;;;;;18.42;8.77;;;7.30;92.30;;;;;;5002510;28;20049;-77
2021/03/04 04:11:44;;;;;;;22.15;8.98;;;7.20;92.50;;;;;;4999271;28;20042;-77
2021/03/04 04:14:10;;;;;;;29.42;9.90;;;7.20;92.20;;;;;;5002249;28;20169;-76
2021/03/04 04:16:36;;;;;;;21.35;9.40;;;7.20;92.50;;;;;;5004238;28;20042;-77
2021/03/04 04:19:02;;;;;;;28.05;9.43;;;7.20;92.20;;;;;;5006490;28;20052;-77
2021/03/04 04:21:28;;;;;;;24.08;9.55;;;7.20;92.50;;;;;;5006302;28;20052;-77
2021/03/04 04:23:54;;;;;;;20.42;8.50;;;7.20;92.80;;;;;;5002258;28;20034;-77
2021/03/04 04:26:20;;;;;;;21.65;9.00;;;7.10;92.90;;;;;;5008700;28;20044;-77
2021/03/04 04:28:46;;;;;;;22.63;8.80;;;7.10;93.00;;;;;;5002912;28;20485;-78
2021/03/04 04:31:12;;;;;;;24.48;8.80;;;7.10;92.70;;;;;;5007396;28;20053;-77
2021/03/04 04:33:37;;;;;;;25.35;8.95;;;7.10;92.90;;;;;;5014258;28;20628;-76
2021/03/04 04:36:04;;;;;;;19.75;9.88;;;7.00;92.60;;;;;;5005295;28;20072;-77
2021/03/04 04:38:29;;;;;;;24.45;9.13;;;7.00;93.10;;;;;;5004194;28;20037;-77
2021/03/04 04:40:55;;;;;;;19.58;9.20;;;6.90;93.00;;;;;;5014415;28;20048;-77
2021/03/04 04:43:20;;;;;;;33.33;9.43;;;6.90;92.50;;;;;;5005623;28;20030;-77
2021/03/04 04:45:46;;;;;;;27.40;8.82;;;6.90;92.60;;;;;;5013323;28;20038;-77
2021/03/04 04:48:12;;;;;;;22.60;8.70;;;6.90;92.30;;;;;;5002134;28;20084;-77
2021/03/04 04:50:37;;;;;;;23.42;8.68;;;6.80;92.40;;;;;;5002416;28;20566;-76
2021/03/04 04:53:03;;;;;;;20.20;7.95;;;6.80;92.40;;;;;;5014174;28;20464;-77
2021/03/04 04:55:29;;;;;;;20.27;8.43;;;6.80;93.00;;;;;;5004503;28;20041;-76
2021/03/04 04:57:55;;;;;;;21.92;8.18;;;6.70;92.60;;;;;;5005005;28;20037;-76
2021/03/04 05:00:21;;;;;;;20.00;8.32;;;6.70;92.50;;;;;;5001177;28;20092;-77
2021/03/04 05:02:47;;;;;;;22.35;8.93;;;6.70;92.80;;;;;;5001440;28;20077;-76
2021/03/04 05:05:13;;;;;;;19.63;8.63;;;6.60;93.20;;;;;;5003429;28;20192;-77
2021/03/04 05:07:38;;;;;;;21.05;8.75;;;6.60;92.90;;;;;;5000565;28;20526;-76
2021/03/04 05:10:08;;;;;;;28.25;8.13;;;6.60;93.20;;;;;;5002379;28;20042;-77
2021/03/04 05:12:34;;;;;;;21.88;8.65;;;6.60;92.50;;;;;;5013856;28;20137;-77
2021/03/04 05:14:59;;;;;;;23.25;8.10;;;6.60;92.20;;;;;;5003857;28;20566;-77
2021/03/04 05:17:25;;;;;;;20.92;7.80;;;6.60;92.40;;;;;;5007324;28;20040;-77
2021/03/04 05:19:51;;;;;;;21.70;8.38;;;6.60;92.30;;;;;;5001366;28;20030;-77
2021/03/04 05:22:16;;;;;;;22.60;8.32;;;6.50;92.40;;;;;;5002292;28;20041;-77
2021/03/04 05:24:42;;;;;;;18.70;8.27;;;6.60;91.80;;;;;;5003093;28;20099;-76
2021/03/04 05:27:08;;;;;;;24.00;7.70;;;6.60;92.00;;;;;;5001829;28;20129;-77
2021/03/04 05:29:33;;;;;;;16.95;7.35;;;6.50;91.70;;;;;;5004144;28;20038;-77
2021/03/04 05:31:59;;;;;;;30.55;7.40;;;6.60;91.40;;;;;;5001359;28;20387;-76
2021/03/04 05:34:25;;;;;;;25.02;9.27;;;6.50;91.80;;;;;;5005336;28;20038;-77
2021/03/04 05:36:50;;;;;;;18.65;8.25;;;6.50;91.90;;;;;;5003388;28;20056;-77
2021/03/04 05:39:16;;;;;;;16.75;6.50;;;6.50;92.10;;;;;;5009849;28;20040;-77
2021/03/04 05:41:42;;;;;;;19.40;7.63;;;6.50;92.30;;;;;;5009081;28;20053;-77
2021/03/04 05:44:08;;;;;;;21.25;7.50;;;6.40;92.30;;;;;;5003600;28;20081;-77
2021/03/04 05:46:35;;;;;;;19.55;8.25;;;6.40;91.90;;;;;;5014777;28;20608;-77
2021/03/04 05:49:02;;;;;;;19.65;7.80;;;6.40;92.20;;;;;;4999868;28;20041;-77
2021/03/04 05:51:32;;;;;;;19.40;7.50;;;6.40;91.80;;;;;;5002251;28;20073;-77
2021/03/04 05:53:58;;;;;;;18.20;7.20;;;6.40;91.40;;;;;;5000747;28;20116;-77
2021/03/04 05:56:25;;;;;;;21.08;7.53;;;6.40;91.50;;;;;;5001995;28;20689;-77
2021/03/04 05:58:52;;;;;;;14.98;6.40;;;6.30;91.80;;;;;;5003538;28;20092;-76
2021/03/04 06:01:18;;;;;;;22.73;7.75;;;6.40;90.90;;;;;;4999830;28;20045;-76
2021/03/04 06:03:45;;;;;;;20.48;6.97;;;6.40;91.00;;;;;;5000975;28;20036;-76
2021/03/04 06:06:11;;;;;;;21.75;7.40;;;6.30;91.60;;;;;;5000270;28;20057;-76
2021/03/04 06:08:37;;;;;;;21.23;7.53;;;6.30;91.30;;;;;;5000324;28;20040;-77
2021/03/04 06:11:04;;;;;;;23.38;6.57;;;6.30;90.80;;;;;;5002052;28;20440;-77
2021/03/04 06:13:31;;;;;;;23.27;7.05;;;6.30;91.10;;;;;;5010021;28;20160;-77
2021/03/04 06:15:56;;;;;;;23.02;6.78;;;6.20;91.10;;;;;;4999428;28;20578;-77
2021/03/04 06:18:22;;;;;;;21.30;7.13;;;6.20;90.80;;;;;;5003627;28;20131;-77
2021/03/04 06:20:48;;;;;;;24.25;6.78;;;6.30;90.00;;;;;;5007613;28;20038;-76
2021/03/04 06:23:14;;;;;;;27.35;7.40;;;6.30;90.50;;;;;;5004907;28;20060;-77
2021/03/04 06:25:40;;;;;;;21.77;7.65;;;6.30;90.00;;;;;;5017609;28;20034;-77
2021/03/04 06:28:09;;;;;;;28.38;7.25;;;6.30;90.50;;;;;;5007899;28;20041;-77
2021/03/04 06:30:39;;;;;;;24.90;6.35;;;6.40;89.60;;;;;;5005401;28;20113;-77
2021/03/04 06:33:12;;;;;;;26.13;8.00;;;6.30;89.70;;;;;;5008128;28;20037;-78
2021/03/04 06:35:40;;;;;;;42.10;8.30;;;6.30;90.00;;;;;;5001787;28;20096;-77
2021/03/04 06:38:17;;;;;;;25.67;8.13;;;6.30;90.60;;;;;;5005694;28;20119;-78
2021/03/04 06:40:43;;;;;;;36.10;8.15;;;6.40;90.80;;;;;;5002134;28;20052;-78
2021/03/04 06:43:26;;;;;;;24.17;7.22;;;6.40;90.30;;;;;;5005238;28;20034;-78
2021/03/04 06:46:03;;;;;;;30.65;6.82;;;6.50;89.70;;;;;;4999781;28;20057;-80
2021/03/04 06:48:28;;;;;;;22.83;8.05;;;6.60;89.40;;;;;;5002067;28;20034;-79
2021/03/04 06:50:59;;;;;;;25.05;7.88;;;6.60;88.90;;;;;;5001693;28;20088;-80
2021/03/04 06:53:26;;;;;;;34.90;8.00;;;6.70;87.60;;;;;;5005692;28;20064;-80
2021/03/04 06:56:04;;;;;;;20.73;8.07;;;6.80;87.70;;;;;;5010160;28;20398;-80
2021/03/04 06:58:41;;;;;;;28.35;8.07;;;6.80;88.30;;;;;;5004277;28;20057;-78
2021/03/04 07:01:15;;;;;;;22.73;7.53;;;6.90;88.20;;;;;;5006253;28;20054;-78
2021/03/04 07:03:46;;;;;;;21.73;7.63;;;7.10;87.10;;;;;;5004081;28;20046;-77
2021/03/04 07:06:13;;;;;;;22.05;8.02;;;7.10;87.50;;;;;;5003391;28;20041;-78
2021/03/04 07:08:44;;;;;;;23.52;9.32;;;7.30;86.20;;;;;;5003932;28;20067;-80
2021/03/04 07:11:11;;;;;;;22.95;7.50;;;7.30;85.90;;;;;;5003696;28;20053;-79
2021/03/04 07:13:38;;;;;;;22.45;7.97;;;7.50;85.00;;;;;;5004391;28;20145;-79
2021/03/04 07:16:27;;;;;;;33.60;8.43;;;7.60;84.40;;;;;;5005222;28;20529;-80
2021/03/04 07:18:55;;;;;;;30.25;8.32;;;7.80;84.90;;;;;;5001503;28;20160;-79
2021/03/04 07:21:26;;;;;;;40.15;8.02;;;7.90;83.60;;;;;;5003482;28;20075;-80
2021/03/04 07:23:52;;;;;;;37.50;8.55;;;8.10;83.00;;;;;;5003341;28;20038;-79
2021/03/04 07:26:19;;;;;;;24.95;7.82;;;8.20;80.70;;;;;;5006711;28;20041;-79
2021/03/04 07:28:47;;;;;;;30.98;9.05;;;8.50;81.20;;;;;;5006817;28;20597;-79
2021/03/04 07:31:14;;;;;;;23.73;8.43;;;8.70;82.00;;;;;;5008041;28;20172;-80
2021/03/04 07:33:45;;;;;;;32.53;8.75;;;8.90;80.20;;;;;;5005345;28;20042;-79
2021/03/04 07:36:12;;;;;;;86.75;11.80;;;8.90;81.40;;;;;;5007129;28;20116;-80
2021/03/04 07:38:39;;;;;;;103.40;11.23;;;9.40;76.90;;;;;;5006530;28;20037;-79
2021/03/04 07:41:08;;;;;;;90.43;11.98;;;9.90;73.60;;;;;;5013265;28;20052;-80
2021/03/04 07:43:52;;;;;;;40.92;8.88;;;10.30;69.80;;;;;;5007946;28;20037;-80
2021/03/04 07:46:27;;;;;;;33.05;8.32;;;10.80;67.60;;;;;;5005936;28;20410;-78
2021/03/04 07:48:53;;;;;;;36.45;8.82;;;11.00;62.10;;;;;;5008368;28;20046;-78
2021/03/04 07:51:19;;;;;;;25.95;8.73;;;11.60;63.80;;;;;;5011025;28;20091;-79
2021/03/04 07:53:46;;;;;;;32.40;7.32;;;11.70;62.40;;;;;;5009775;28;20037;-79
2021/03/04 07:56:27;;;;;;;28.17;7.93;;;11.90;59.80;;;;;;5007519;28;20045;-79
2021/03/04 07:58:54;;;;;;;29.65;9.13;;;12.00;53.90;;;;;;5009555;28;20045;-80
2021/03/04 08:01:20;;;;;;;25.02;8.23;;;11.60;52.90;;;;;;5009039;28;20045;-80
2021/03/04 08:03:50;;;;;;;23.75;8.85;;;11.60;51.70;;;;;;5005996;28;20099;-81
2021/03/04 08:06:17;;;;;;;32.65;8.95;;;11.80;51.80;;;;;;5006578;28;20413;-81
2021/03/04 08:08:46;;;;;;;27.10;10.15;;;11.80;52.20;;;;;;5008123;28;20260;-80
2021/03/04 08:11:26;;;;;;;28.85;8.55;;;12.10;48.40;;;;;;5024166;28;20177;-78
2021/03/04 08:13:52;;;;;;;25.20;7.97;;;12.20;46.40;;;;;;5008760;28;20041;-80
2021/03/04 08:16:18;;;;;;;24.05;7.60;;;12.60;46.80;;;;;;5011656;28;20563;-80
2021/03/04 08:18:53;;;;;;;26.80;7.47;;;12.80;42.90;;;;;;5010329;28;20107;-81
2021/03/04 08:21:18;;;;;;;22.88;8.77;;;13.10;44.40;;;;;;5009869;28;20077;-80
2021/03/04 08:23:45;;;;;;;35.72;9.15;;;13.20;42.80;;;;;;5006263;28;20041;-79
2021/03/04 08:26:25;;;;;;;22.17;8.48;;;13.00;42.30;;;;;;5005741;28;20132;-77
2021/03/04 08:29:11;;;;;;;28.10;7.82;;;13.30;41.10;;;;;;5009578;28;20041;-78
2021/03/04 08:31:50;;;;;;;29.33;7.22;;;13.10;39.30;;;;;;5006539;28;20037;-80
2021/03/04 08:34:16;;;;;;;29.70;7.57;;;13.00;42.00;;;;;;5008510;28;20615;-80
2021/03/04 08:36:42;;;;;;;21.63;7.45;;;13.20;37.60;;;;;;5003265;28;20136;-80
2021/03/04 08:39:08;;;;;;;19.17;7.43;;;13.40;36.80;;;;;;5013200;28;20436;-80
2021/03/04 08:41:34;;;;;;;22.73;8.00;;;13.70;35.60;;;;;;5007963;28;20129;-79
2021/03/04 08:44:09;;;;;;;31.98;7.35;;;14.10;33.90;;;;;;5009968;28;20434;-79
2021/03/04 08:46:35;;;;;;;20.23;7.47;;;14.50;31.50;;;;;;5016251;28;20449;-79
2021/03/04 08:49:01;;;;;;;21.40;9.07;;;14.90;32.90;;;;;;5005770;28;20578;-79
2021/03/04 08:51:28;;;;;;;23.45;7.45;;;15.60;31.70;;;;;;5006960;28;20106;-80
2021/03/04 08:53:53;;;;;;;19.38;7.43;;;15.20;32.00;;;;;;5016735;28;20041;-80
2021/03/04 08:56:19;;;;;;;25.75;7.53;;;14.50;31.10;;;;;;5007861;28;20038;-81
2021/03/04 08:58:44;;;;;;;26.83;8.95;;;14.40;31.40;;;;;;5000712;28;20120;-81
2021/03/04 09:01:11;;;;;;;19.65;7.32;;;14.60;31.30;;;;;;5002170;28;20099;-81
2021/03/04 09:03:40;;;;;;;23.52;6.47;;;14.30;31.20;;;;;;5005106;28;20053;-81
2021/03/04 09:06:10;;;;;;;23.17;8.10;;;14.20;32.30;;;;;;5012476;28;20053;-81
2021/03/04 09:08:38;;;;;;;19.48;7.75;;;13.80;31.70;;;;;;5001608;28;20121;-81
2021/03/04 09:11:06;;;;;;;19.52;7.55;;;14.30;32.20;;;;;;5002653;28;20052;-80
2021/03/04 09:13:33;;;;;;;18.05;7.80;;;14.60;31.70;;;;;;5015445;28;20038;-81
2021/03/04 09:16:06;;;;;;;26.10;7.47;;;14.40;30.40;;;;;;5007576;28;20044;-81
2021/03/04 09:18:52;;;;;;;24.13;6.65;;;14.10;31.80;;;;;;5006521;28;20061;-79
2021/03/04 09:21:18;;;;;;;19.55;7.47;;;14.10;31.60;;;;;;5001657;28;20041;-80
2021/03/04 09:23:45;;;;;;;15.90;6.97;;;14.50;31.50;;;;;;5004256;28;20042;-79
2021/03/04 09:26:11;;;;;;;22.85;6.75;;;15.40;29.00;;;;;;5003774;28;20049;-80
2021/03/04 09:28:38;;;;;;;27.48;8.05;;;15.80;28.80;;;;;;5002401;28;20042;-79
2021/03/04 09:31:11;;;;;;;22.98;7.55;;;16.30;28.00;;;;;;5003860;28;20107;-80
2021/03/04 09:33:37;;;;;;;22.73;7.30;;;16.30;28.10;;;;;;5002306;28;20045;-80
2021/03/04 09:36:05;;;;;;;23.98;7.18;;;15.70;27.60;;;;;;5004694;28;20060;-81
2021/03/04 09:38:32;;;;;;;21.98;7.32;;;15.70;28.80;;;;;;5012674;28;20048;-81
2021/03/04 09:41:12;;;;;;;19.77;6.85;;;15.80;28.00;;;;;;5003751;28;20913;-80
2021/03/04 09:43:41;;;;;;;20.98;6.97;;;15.70;29.20;;;;;;5016143;28;20072;-80
2021/03/04 09:46:07;;;;;;;19.67;6.57;;;16.80;28.70;;;;;;5007985;28;20061;-79
2021/03/04 09:48:35;;;;;;;21.02;6.63;;;17.40;24.90;;;;;;5007321;28;21034;-79
2021/03/04 09:51:01;;;;;;;24.55;7.90;;;18.40;25.20;;;;;;5011606;28;20038;-80
2021/03/04 09:53:27;;;;;;;25.45;7.45;;;18.60;24.00;;;;;;5005745;28;20042;-80
2021/03/04 09:55:52;;;;;;;25.20;7.30;;;19.60;23.70;;;;;;5003774;28;20526;-78
2021/03/04 09:58:24;;;;;;;25.27;7.15;;;19.40;21.90;;;;;;5005640;28;20044;-79
2021/03/04 10:00:57;;;;;;;19.58;7.75;;;19.20;22.40;;;;;;5007379;28;20507;-79
2021/03/04 10:03:32;;;;;;;33.53;8.57;;;19.10;22.90;;;;;;5005323;28;20053;-79
2021/03/04 10:05:58;;;;;;;23.13;8.55;;;19.50;22.20;;;;;;5005744;28;20037;-79
2021/03/04 10:08:23;;;;;;;21.52;8.68;;;20.20;22.20;;;;;;5005535;28;20390;-80
2021/03/04 10:10:50;;;;;;;25.38;7.68;;;19.80;22.00;;;;;;5008765;28;20044;-78
2021/03/04 10:13:27;;;;;;;21.90;8.02;;;21.00;21.10;;;;;;5007052;28;20063;-78
2021/03/04 10:15:52;;;;;;;24.27;7.85;;;20.30;21.70;;;;;;5006073;28;20038;-78
2021/03/04 10:18:18;;;;;;;20.35;8.35;;;19.90;21.10;;;;;;5005752;28;20085;-76
2021/03/04 10:20:45;;;;;;;21.02;7.97;;;20.20;21.30;;;;;;5003338;28;20646;-78
2021/03/04 10:23:12;;;;;;;23.20;7.80;;;20.60;21.50;;;;;;5005140;28;20064;-79
2021/03/04 10:25:38;;;;;;;30.33;9.25;;;20.40;21.80;;;;;;5005158;28;20033;-78
2021/03/04 10:28:05;;;;;;;26.63;8.77;;;21.60;21.80;;;;;;5007158;28;20293;-79
2021/03/04 10:30:32;;;;;;;24.83;9.70;;;22.10;21.20;;;;;;5007643;28;20525;-79
2021/03/04 10:32:59;;;;;;;32.63;10.25;;;21.30;20.20;;;;;;5006658;28;20038;-80
2021/03/04 10:35:24;;;;;;;28.15;9.13;;;21.70;21.40;;;;;;5007843;28;20541;-78
2021/03/04 10:37:51;;;;;;;35.83;10.50;;;20.80;20.50;;;;;;5004702;28;20037;-77
2021/03/04 10:40:18;;;;;;;29.25;11.50;;;20.70;21.00;;;;;;5006929;28;20030;-77
2021/03/04 10:42:44;;;;;;;25.73;10.50;;;19.60;21.80;;;;;;5006845;28;20041;-77
2021/03/04 10:45:12;;;;;;;38.90;11.43;;;20.40;23.70;;;;;;5005203;28;20065;-78
2021/03/04 10:47:39;;;;;;;32.60;11.75;;;20.40;22.30;;;;;;5008157;28;20045;-78
2021/03/04 10:50:07;;;;;;;31.00;12.05;;;20.60;23.40;;;;;;5008770;28;20038;-79
2021/03/04 10:52:33;;;;;;;31.55;11.65;;;21.10;22.60;;;;;;5008278;28;20059;-79
2021/03/04 10:54:58;;;;;;;26.98;11.65;;;21.20;21.80;;;;;;5008022;28;20341;-79
2021/03/04 10:57:24;;;;;;;30.17;11.32;;;21.60;21.20;;;;;;5009480;28;20171;-79
2021/03/04 10:59:50;;;;;;;37.28;11.10;;;20.70;21.70;;;;;;5008750;28;20048;-79
2021/03/04 11:02:16;;;;;;;35.22;10.20;;;20.60;21.40;;;;;;5004595;28;20041;-80
2021/03/04 11:04:41;;;;;;;23.77;9.52;;;20.60;23.00;;;;;;5002260;28;20046;-79
2021/03/04 11:07:07;;;;;;;23.15;9.43;;;19.60;21.80;;;;;;5003571;28;20049;-80
2021/03/04 11:09:33;;;;;;;26.73;9.68;;;19.30;22.90;;;;;;5000270;28;20061;-78
2021/03/04 11:11:59;;;;;;;27.90;9.20;;;19.40;22.80;;;;;;5001987;28;20044;-79
2021/03/04 11:14:24;;;;;;;31.45;9.95;;;18.80;23.30;;;;;;5003560;28;20045;-81
2021/03/04 11:16:50;;;;;;;32.00;10.73;;;18.70;24.20;;;;;;5005444;28;20522;-80
2021/03/04 11:19:15;;;;;;;27.77;10.68;;;18.00;24.80;;;;;;5003394;28;20084;-80
2021/03/04 11:21:43;;;;;;;39.42;10.30;;;18.10;25.50;;;;;;5001339;28;20053;-79
2021/03/04 11:24:09;;;;;;;36.40;11.77;;;17.90;26.30;;;;;;5001722;28;20102;-80
2021/03/04 11:26:38;;;;;;;31.13;11.57;;;18.00;27.00;;;;;;5006408;28;20038;-79
2021/03/04 11:29:05;;;;;;;28.27;10.77;;;18.00;27.70;;;;;;5001004;28;20038;-80
2021/03/04 11:31:31;;;;;;;35.90;13.13;;;17.30;27.30;;;;;;5003117;28;20160;-79
2021/03/04 11:33:56;;;;;;;26.15;9.77;;;17.10;27.80;;;;;;4998434;28;20121;-79
2021/03/04 11:36:22;;;;;;;24.55;10.27;;;17.10;28.00;;;;;;5003344;28;20046;-79
2021/03/04 11:38:48;;;;;;;34.35;10.75;;;17.10;28.70;;;;;;5001080;28;20038;-79
2021/03/04 11:41:13;;;;;;;42.38;11.90;;;16.80;28.10;;;;;;5005058;28;20090;-79
2021/03/04 11:43:39;;;;;;;39.70;11.35;;;16.50;28.80;;;;;;5003187;28;20038;-79
2021/03/04 11:46:04;;;;;;;32.15;10.43;;;16.70;29.30;;;;;;5004723;28;20120;-80
2021/03/04 11:48:30;;;;;;;36.15;10.55;;;16.90;28.60;;;;;;5004534;28;20057;-79
2021/03/04 11:50:56;;;;;;;33.90;10.55;;;16.80;28.40;;;;;;5005038;28;20411;-80
2021/03/04 11:53:21;;;;;;;31.90;10.07;;;16.70;28.60;;;;;;5006753;28;20092;-80
2021/03/04 11:55:47;;;;;;;31.70;11.27;;;16.80;28.60;;;;;;5004283;28;20041;-79
2021/03/04 11:58:12;;;;;;;32.33;9.60;;;16.40;28.30;;;;;;5013460;28;20050;-79
2021/03/04 12:00:38;;;;;;;31.92;10.15;;;16.80;29.40;;;;;;5003612;28;20057;-77
2021/03/04 12:03:03;;;;;;;39.10;11.10;;;16.80;29.30;;;;;;5004667;28;20034;-79
2021/03/04 12:05:29;;;;;;;38.72;12.10;;;16.60;29.20;;;;;;5005032;28;20251;-79
2021/03/04 12:07:55;;;;;;;39.75;11.23;;;16.60;29.70;;;;;;5001792;28;20566;-78
2021/03/04 12:10:20;;;;;;;30.48;10.05;;;16.50;29.80;;;;;;5006164;28;20037;-78
2021/03/04 12:12:46;;;;;;;31.20;7.95;;;16.40;29.10;;;;;;5001501;28;20410;-80
2021/03/04 12:15:14;;;;;;;30.70;8.25;;;16.30;28.20;;;;;;5003346;28;20038;-80
2021/03/04 12:17:40;;;;;;;34.83;8.63;;;16.50;28.50;;;;;;5003819;28;20034;-79
2021/03/04 12:20:06;;;;;;;22.70;7.90;;;16.80;28.20;;;;;;5006057;28;20065;-80
2021/03/04 12:22:32;;;;;;;23.17;7.53;;;17.00;28.20;;;;;;5006238;28;20149;-79
2021/03/04 12:24:58;;;;;;;39.10;7.50;;;17.40;27.30;;;;;;5005438;28;20041;-78
2021/03/04 12:27:23;;;;;;;23.23;7.15;;;17.30;26.70;;;;;;5005221;28;20041;-79
2021/03/04 12:29:49;;;;;;;34.33;6.45;;;17.30;25.70;;;;;;5005238;28;20237;-79
2021/03/04 12:32:16;;;;;;;25.63;7.03;;;17.30;25.30;;;;;;5004778;28;20049;-79
2021/03/04 12:34:41;;;;;;;20.95;5.95;;;17.20;24.70;;;;;;5006250;28;20109;-78
2021/03/04 12:37:07;;;;;;;36.60;6.45;;;17.20;26.10;;;;;;5008476;28;20589;-78
2021/03/04 12:39:32;;;;;;;23.80;6.63;;;16.90;25.80;;;;;;5006934;28;20049;-78
2021/03/04 12:41:58;;;;;;;16.75;5.47;;;16.70;25.10;;;;;;5007295;28;20045;-78
2021/03/04 12:44:23;;;;;;;20.55;5.93;;;16.90;25.60;;;;;;5008655;28;20459;-77
2021/03/04 12:46:49;;;;;;;20.58;6.00;;;17.40;25.40;;;;;;5004341;28;20091;-78